PINE FLAT DAM (PNF)

Elevation: 970' · KINGS R basin · Operator: US Army Corps of Engineers

Provisional data, subject to change.
Query executed Thursday at 20:19:24   clock

Select a sensor type for a plot of data.
Note: Reservoir Flows are daily averages.

Earlier

Date RES ELE    STORAGE    RES CHG    TOC STO    ABV TOC    OUTFLOW    INFLOW    FNF    PPT INC    PPTINC4    TEMP MN    TEMP MX    WINDLEN    EVP PAN   
 FEET   AF   AF   AF   AF   CFS   CFS   CFS   INCHES   INCHES   DEG F   DEG F   MILES   INCHES  
11/19/2014 722.63 118392 248 610656 -492264 108 238 171 0.00 0.00 -- -- 42 0.07
11/20/2014 722.75 118622 230 602869 -484247 141 261 181 0.19 0.00 -- -- 41 0.05
11/21/2014 722.81 118736 -- 595082 -- 141 202 153 0.00 0.19 -- -- 38 0.05
11/22/2014 722.85 118813 -- 587295 -- 141 183 134 0.00 0.00 -- -- 32 0.05
11/23/2014 722.89 118890 -- 579508 -- 141 183 134 0.00 0.03 -- -- 32 0.04
11/24/2014 722.95 119005 115 571721 -452716 141 203 154 0.00 0.00 -- -- 34 0.05
11/25/2014 722.97 119043 38 563934 -444891 141 165 126 0.01 0.00 -- -- 38 0.06
11/26/2014 722.99 119081 38 556147 -437066 137 161 130 0.00 0.00 -- -- 35 0.06
11/27/2014 723.03 119158 77 548361 -429203 135 179 145 0.00 0.00 -- -- 37 0.07
11/28/2014 723.05 119196 38 540574 -421378 135 159 67 0.01 0.00 -- -- 36 0.07
11/29/2014 723.11 119311 115 532787 -413476 135 199 141 0.00 0.00 -- -- 34 0.07
11/30/2014 723.12 119330 19 525000 -405670 140 154 112 0.00 0.00 -- -- 36 0.05
12/01/2014 723.14 119369 39 525000 -405631 141 166 127 0.00 0.00 -- -- 47 0.07
12/02/2014 723.20 119484 115 525000 -405516 141 200 479 0.31 0.00 -- -- 46 0.02
12/03/2014 723.61 120272 788 525000 -404728 141 542 643 0.02 0.31 -- -- 34 0.06
12/04/2014 723.90 120832 560 525000 -404168 141 427 450 0.00 0.02 -- -- 31 0.05
12/05/2014 724.05 121121 289 525000 -403879 152 300 281 0.00 0.00 -- -- 26 0.04
12/06/2014 724.15 121315 194 525000 -403685 160 262 240 0.00 0.00 -- -- 33 0.06
12/07/2014 724.23 121470 155 525000 -403530 160 242 198 0.00 0.00 -- -- 36 0.05
12/08/2014 724.29 121586 116 525000 -403414 160 223 205 0.00 0.00 -- -- 39 0.06
12/09/2014 724.36 121721 135 525000 -403279 157 229 192 0.00 0.00 -- -- 41 0.05
12/10/2014 724.45 121896 175 525000 -403104 155 247 149 0.02 0.00 -- -- 38 0.04
12/11/2014 724.63 122245 349 525000 -402755 126 304 224 0.00 0.00 -- -- 31 0.03
12/12/2014 725.02 123004 759 525000 -401996 116 500 662 2.14 0.65 -- -- 41 0.03
12/13/2014 725.40 123746 742 525000 -401254 115 492 538 0.02 1.33 -- -- 29 0.04
12/14/2014 725.62 124177 431 525000 -400823 115 335 363 0.00 0.00 -- -- 28 0.03
12/15/2014 725.81 124549 372 525000 -400451 115 305 350 0.01 0.00 -- -- 33 0.03
12/16/2014 726.02 124961 412 525000 -400039 115 327 409 0.09 0.18 -- -- 41 0.05
12/17/2014 726.30 125512 551 525000 -399488 115 395 439 0.44 0.42 -- -- 29 0.03
12/18/2014 -- -- -- -- -- -- -- -- -- 0.03 -- -- -- --

Later | Latest

Warning! This data is preliminary and subject to revision.

Show PNF Map | Plot PNF Data | 1 Month PNF Data | Real-Time PNF Data | PNF Info